This is the latest recevied weather packets stored in our database for station/object KI7YRV. If no packets are shown the sender has not sent any weather packets the latest 10 day(s).
| Time | Temp. | Humidity | Pressure | Rain* | Wind** | Luminosity | Snow |
|---|---|---|---|---|---|---|---|
| 1777591819 | 13.33° C | 31% | 1022.3 hPa | 0 mm | - | - | - |
| 1777591224 | 13.33° C | 32% | 1022.3 hPa | 0 mm | - | - | - |
| 1777588823 | 13.33° C | 33% | 1022.6 hPa | 0 mm | - | - | - |
| 1777585827 | 13.89° C | 33% | 1022.9 hPa | 0 mm | - | - | - |
| 1777585231 | 12.78° C | 34% | 1023.1 hPa | 0 mm | - | - | - |
| 1777574419 | 10° C | 41% | 1024.2 hPa | 0 mm | - | - | - |
| 1777573248 | 10.56° C | 41% | 1024.4 hPa | 0 mm | - | - | - |
| 1777568448 | 10° C | 49% | 1024.7 hPa | 0 mm | - | - | - |
| 1777566027 | 8.89° C | 53% | 1024.8 hPa | 0 mm | - | - | - |
| 1777564818 | 8.33° C | 54% | 1024.8 hPa | 0 mm | - | - | - |
| 1777555819 | 3.33° C | 90% | 1025 hPa | 0 mm | - | - | - |
| 1777553430 | 1.67° C | 98% | 1024.9 hPa | 0 mm | - | - | - |
| 1777550416 | 1.67° C | 99% | 1024.9 hPa | 0 mm | - | - | - |
| 1777548629 | 1.67° C | 99% | 1024.8 hPa | 0 mm | - | - | - |
| 1777545615 | 1.67° C | 99% | 1025 hPa | 0 mm | - | - | - |
| 1777531230 | 3.89° C | 80% | 1025.1 hPa | 0 mm | - | - | - |
| 1777525219 | 5° C | 73% | 1024.5 hPa | 0 mm | - | - | - |
| 1777524028 | 5° C | 74% | 1024.5 hPa | 0 mm | - | - | - |
| 1777513215 | 7.78° C | 64% | 1022.3 hPa | 0 mm | - | - | - |
| 1777505417 | 11.67° C | 43% | 1021.5 hPa | 0 mm | - | - | - |
| 1777504226 | 12.22° C | 41% | 1021.5 hPa | 0 mm | - | - | - |
| 1777503016 | 12.22° C | 41% | 1021.4 hPa | 0 mm | - | - | - |
| 1777497024 | 13.89° C | 39% | 1022 hPa | 0 mm | - | - | - |
| 1777494623 | 10° C | 43% | 1021.8 hPa | 0 mm | - | - | - |
| 1777491662 | 12.78° C | 36% | 1021.5 hPa | 0 mm | - | - | - |
* Rain latest hour (hover to see other rain measurements)
** Current wind speed in m/s (hover to see current wind gust speed)